Time;durP1;ratioP1;P1;durP2;ratioP2;P2;SDS_P1;SDS_P2;PMS_P1;PMS_P2;Temp;Humidity;BMP_temperature;BMP_pressure;BME280_temperature;BME280_humidity;BME280_pressure;Samples;Min_cycle;Max_cycle;Signal;HPM_P1;HPM_P2
2021/11/21 00:00:30;;;;;;;0.15;0.15;;;4.70;99.90;;;;;;5095711;28;20486;-79
2021/11/21 00:02:57;;;;;;;0.75;0.75;;;4.70;99.90;;;;;;5095027;28;20035;-79
2021/11/21 00:05:23;;;;;;;0.10;0.10;;;4.70;99.90;;;;;;5095577;28;20020;-79
2021/11/21 00:07:49;;;;;;;0.10;0.10;;;4.50;99.90;;;;;;5095650;28;20050;-79
2021/11/21 00:10:14;;;;;;;0.10;0.10;;;4.60;99.90;;;;;;5077196;28;20020;-79
2021/11/21 00:12:40;;;;;;;0.00;0.00;;;4.60;99.90;;;;;;5095876;28;20038;-79
2021/11/21 00:15:06;;;;;;;0.15;0.15;;;4.60;99.90;;;;;;5095322;28;20027;-79
2021/11/21 00:17:32;;;;;;;0.00;0.00;;;4.60;99.90;;;;;;5094815;28;20059;-79
2021/11/21 00:19:58;;;;;;;0.00;0.00;;;4.70;99.90;;;;;;5095552;28;20052;-79
2021/11/21 00:22:25;;;;;;;0.08;0.08;;;4.70;99.90;;;;;;5095359;28;20063;-79
2021/11/21 00:24:51;;;;;;;0.15;0.15;;;4.60;99.90;;;;;;5095170;28;20487;-79
2021/11/21 00:27:17;;;;;;;0.10;0.10;;;4.60;99.90;;;;;;5095261;28;20048;-79
2021/11/21 00:29:43;;;;;;;0.88;0.85;;;4.60;99.90;;;;;;5095004;28;20031;-79
2021/11/21 00:32:09;;;;;;;0.10;0.10;;;4.60;99.90;;;;;;5094687;28;20475;-79
2021/11/21 00:34:35;;;;;;;5.53;1.00;;;4.60;99.90;;;;;;5095286;28;20028;-78
2021/11/21 00:37:01;;;;;;;0.98;0.88;;;4.60;99.90;;;;;;5095238;28;20030;-79
2021/11/21 00:39:27;;;;;;;7.43;0.28;;;4.50;99.90;;;;;;5095152;28;20561;-79
2021/11/21 00:41:55;;;;;;;0.13;0.13;;;4.40;99.90;;;;;;5095430;28;20035;-79
2021/11/21 00:44:21;;;;;;;0.38;0.32;;;4.40;99.90;;;;;;5094591;28;20020;-79
2021/11/21 00:46:47;;;;;;;0.15;0.15;;;4.40;99.90;;;;;;5094830;28;20479;-79
2021/11/21 00:49:15;;;;;;;0.40;0.28;;;4.40;99.90;;;;;;5094805;28;20022;-79
2021/11/21 00:51:41;;;;;;;0.57;0.45;;;4.40;99.90;;;;;;5094475;28;20137;-79
2021/11/21 00:54:27;;;;;;;0.03;0.03;;;4.30;99.90;;;;;;5093758;28;20020;-79
2021/11/21 00:56:53;;;;;;;0.85;0.68;;;4.20;99.90;;;;;;5092787;28;20103;-79
2021/11/21 00:59:19;;;;;;;0.10;0.10;;;4.10;99.90;;;;;;5093511;28;20074;-79
2021/11/21 01:01:50;;;;;;;3.53;0.60;;;4.20;99.90;;;;;;5095070;28;20032;-79
2021/11/21 01:04:16;;;;;;;1.60;0.30;;;4.20;99.90;;;;;;5094166;28;20127;-79
2021/11/21 01:06:43;;;;;;;0.32;0.32;;;4.20;99.90;;;;;;5094284;28;20028;-79
2021/11/21 01:09:09;;;;;;;0.43;0.43;;;4.20;99.90;;;;;;5094806;28;20024;-79
2021/11/21 01:11:35;;;;;;;0.00;0.00;;;4.30;99.90;;;;;;5092685;28;20399;-79
2021/11/21 01:14:01;;;;;;;0.00;0.00;;;4.30;99.90;;;;;;5094078;28;20027;-79
2021/11/21 01:16:27;;;;;;;0.00;0.00;;;4.30;99.90;;;;;;5094402;28;20073;-79
2021/11/21 01:18:52;;;;;;;0.60;0.60;;;4.30;99.90;;;;;;5093429;28;20024;-79
2021/11/21 01:21:18;;;;;;;0.55;0.55;;;4.30;99.90;;;;;;5094581;28;20479;-79
2021/11/21 01:23:44;;;;;;;0.32;0.32;;;4.20;99.90;;;;;;5094273;28;20023;-79
2021/11/21 01:26:10;;;;;;;0.10;0.10;;;4.20;99.90;;;;;;5075723;28;20450;-79
2021/11/21 01:28:35;;;;;;;0.60;0.60;;;4.20;99.90;;;;;;5093742;28;20091;-79
2021/11/21 01:31:01;;;;;;;0.10;0.10;;;4.30;99.90;;;;;;5094106;28;20030;-79
2021/11/21 01:33:27;;;;;;;0.30;0.20;;;4.30;99.90;;;;;;5093770;28;20029;-79
2021/11/21 01:35:53;;;;;;;0.10;0.10;;;4.20;99.90;;;;;;5094175;28;20042;-79
2021/11/21 01:38:19;;;;;;;0.70;0.70;;;4.20;99.90;;;;;;5093962;28;20033;-79
2021/11/21 01:40:46;;;;;;;1.15;1.15;;;4.20;99.90;;;;;;5093727;28;20028;-79
2021/11/21 01:43:12;;;;;;;0.28;0.28;;;4.20;99.90;;;;;;5093866;28;20027;-79
2021/11/21 01:45:38;;;;;;;0.10;0.10;;;4.30;99.90;;;;;;5075603;28;20031;-79
2021/11/21 01:48:04;;;;;;;0.38;0.38;;;4.20;99.90;;;;;;5093265;28;20027;-79
2021/11/21 01:50:34;;;;;;;0.20;0.20;;;4.20;99.90;;;;;;5093459;28;20091;-79
2021/11/21 01:53:00;;;;;;;0.50;0.50;;;4.20;99.90;;;;;;5092311;28;20141;-79
2021/11/21 01:55:26;;;;;;;0.10;0.10;;;4.20;99.90;;;;;;5093652;28;20055;-79
2021/11/21 01:57:53;;;;;;;0.43;0.08;;;4.20;99.90;;;;;;5093316;28;20032;-79
2021/11/21 02:00:19;;;;;;;0.25;0.20;;;4.20;99.90;;;;;;5092761;28;20024;-79
2021/11/21 02:02:45;;;;;;;1.55;1.45;;;4.20;99.90;;;;;;5074874;28;20483;-79
2021/11/21 02:05:11;;;;;;;0.35;0.35;;;4.20;99.90;;;;;;5093585;28;20048;-79
2021/11/21 02:07:38;;;;;;;1.35;0.30;;;4.30;99.90;;;;;;5093145;28;20020;-79
2021/11/21 02:10:06;;;;;;;0.52;0.45;;;4.20;99.90;;;;;;5092647;28;20098;-79
2021/11/21 02:12:32;;;;;;;0.00;0.00;;;4.20;99.90;;;;;;5093660;28;20525;-79
2021/11/21 02:14:58;;;;;;;0.13;0.13;;;4.10;99.90;;;;;;5093162;28;20027;-79
2021/11/21 02:17:27;;;;;;;2.55;0.85;;;4.10;99.90;;;;;;5092869;28;20483;-79
2021/11/21 02:19:53;;;;;;;0.00;0.00;;;4.10;99.90;;;;;;5092876;28;20547;-79
2021/11/21 02:22:19;;;;;;;0.80;0.30;;;4.20;99.90;;;;;;5093083;28;20031;-79
2021/11/21 02:24:45;;;;;;;0.20;0.20;;;4.20;99.90;;;;;;5093112;28;20028;-79
2021/11/21 02:27:15;;;;;;;0.25;0.25;;;4.20;99.90;;;;;;5092863;28;20131;-79
2021/11/21 02:29:41;;;;;;;2.13;0.43;;;4.20;99.90;;;;;;5092756;28;20016;-79
2021/11/21 02:32:07;;;;;;;1.38;0.75;;;4.20;99.90;;;;;;5093024;28;20544;-79
2021/11/21 02:34:32;;;;;;;0.10;0.10;;;4.20;99.90;;;;;;5074570;28;20024;-79
2021/11/21 02:36:58;;;;;;;0.20;0.20;;;4.20;99.90;;;;;;5092872;28;20028;-79
2021/11/21 02:39:24;;;;;;;1.17;1.08;;;4.20;99.90;;;;;;5092879;28;20031;-79
2021/11/21 02:41:50;;;;;;;0.08;0.08;;;4.10;99.90;;;;;;5092746;28;20024;-79
2021/11/21 02:44:16;;;;;;;0.17;0.17;;;4.10;99.90;;;;;;5092739;28;20034;-79
2021/11/21 02:46:41;;;;;;;0.28;0.28;;;4.10;99.90;;;;;;5093049;28;20394;-79
2021/11/21 02:49:07;;;;;;;5.85;0.63;;;4.10;99.90;;;;;;5092491;28;20020;-79
2021/11/21 02:51:33;;;;;;;0.00;0.00;;;4.20;99.90;;;;;;5092791;28;20024;-79
2021/11/21 02:53:59;;;;;;;0.17;0.17;;;4.20;99.90;;;;;;5091704;28;20099;-79
2021/11/21 02:56:25;;;;;;;0.45;0.45;;;4.20;99.90;;;;;;5092329;28;20013;-79
2021/11/21 02:58:51;;;;;;;0.03;0.03;;;4.30;99.90;;;;;;5092457;28;20024;-79
2021/11/21 03:01:20;;;;;;;0.60;0.43;;;4.20;99.90;;;;;;5092461;28;20371;-79
2021/11/21 03:03:47;;;;;;;0.00;0.00;;;4.20;99.90;;;;;;5092657;28;20394;-79
2021/11/21 03:06:13;;;;;;;0.22;0.22;;;4.20;99.90;;;;;;5093017;28;20103;-79
2021/11/21 03:08:40;;;;;;;0.10;0.10;;;4.20;99.90;;;;;;5092633;28;20123;-79
2021/11/21 03:11:28;;;;;;;0.03;0.03;;;4.20;99.90;;;;;;5092190;28;20043;-79
2021/11/21 03:13:55;;;;;;;0.10;0.10;;;4.30;99.90;;;;;;5074737;28;20023;-79
2021/11/21 03:16:21;;;;;;;0.00;0.00;;;4.20;99.90;;;;;;5092009;28;20465;-79
2021/11/21 03:18:47;;;;;;;0.05;0.05;;;4.20;99.90;;;;;;5092248;28;20026;-79
2021/11/21 03:21:12;;;;;;;0.15;0.15;;;4.20;99.90;;;;;;5094860;28;20106;-79
2021/11/21 03:23:39;;;;;;;0.13;0.13;;;4.20;99.90;;;;;;5096230;28;20031;-79
2021/11/21 03:26:05;;;;;;;0.15;0.15;;;4.10;99.90;;;;;;5096820;28;20119;-79
2021/11/21 03:28:30;;;;;;;0.28;0.28;;;4.10;99.90;;;;;;5096592;28;20542;-79
2021/11/21 03:30:56;;;;;;;0.10;0.10;;;4.10;99.90;;;;;;5096304;28;20471;-79
2021/11/21 03:33:22;;;;;;;0.55;0.55;;;4.10;99.90;;;;;;5096140;28;20368;-79
2021/11/21 03:35:48;;;;;;;0.20;0.15;;;4.10;99.90;;;;;;5078101;28;20077;-79
2021/11/21 03:38:13;;;;;;;0.00;0.00;;;4.20;99.90;;;;;;5096182;28;20081;-79
2021/11/21 03:40:39;;;;;;;0.25;0.25;;;4.10;99.90;;;;;;5096389;28;20077;-79
2021/11/21 03:43:05;;;;;;;0.25;0.20;;;4.00;99.90;;;;;;5095998;28;20105;-79
2021/11/21 03:45:31;;;;;;;0.40;0.40;;;4.10;99.90;;;;;;5095561;28;20047;-79
2021/11/21 03:47:57;;;;;;;0.13;0.13;;;4.20;99.90;;;;;;5095905;28;20367;-79
2021/11/21 03:50:23;;;;;;;0.08;0.08;;;4.20;99.90;;;;;;5095883;28;20027;-79
2021/11/21 03:52:49;;;;;;;0.00;0.00;;;4.20;99.90;;;;;;5095586;28;20483;-79
2021/11/21 03:55:17;;;;;;;0.55;0.55;;;4.30;99.90;;;;;;5076627;28;20521;-79
2021/11/21 03:57:42;;;;;;;6.43;0.55;;;4.20;99.90;;;;;;5095729;28;20024;-79
2021/11/21 04:00:21;;;;;;;0.00;0.00;;;4.20;99.90;;;;;;5095214;28;20154;-79
2021/11/21 04:02:47;;;;;;;0.85;0.63;;;4.10;99.90;;;;;;5095275;28;20027;-79
2021/11/21 04:05:14;;;;;;;0.00;0.00;;;4.20;99.90;;;;;;5095602;28;20028;-79
2021/11/21 04:07:41;;;;;;;0.13;0.13;;;4.20;99.90;;;;;;5094624;28;20093;-79
2021/11/21 04:10:09;;;;;;;0.40;0.40;;;4.10;99.90;;;;;;5095548;28;20047;-79
2021/11/21 04:12:36;;;;;;;0.70;0.40;;;4.10;99.90;;;;;;5094547;28;20023;-79
2021/11/21 04:15:02;;;;;;;0.63;0.63;;;4.10;99.90;;;;;;5095304;28;20020;-79
2021/11/21 04:17:29;;;;;;;0.05;0.05;;;4.20;99.90;;;;;;5095048;28;20477;-79
2021/11/21 04:19:55;;;;;;;0.10;0.10;;;4.20;99.90;;;;;;5095423;28;20024;-79
2021/11/21 04:22:21;;;;;;;0.20;0.20;;;4.20;99.90;;;;;;5095331;28;20028;-79
2021/11/21 04:24:47;;;;;;;0.20;0.20;;;4.20;99.90;;;;;;5095252;28;20514;-79
2021/11/21 04:27:13;;;;;;;0.47;0.47;;;4.30;99.90;;;;;;5076914;28;20076;-79
2021/11/21 04:29:39;;;;;;;0.10;0.10;;;4.30;99.90;;;;;;5077105;28;20063;-79
2021/11/21 04:32:05;;;;;;;0.35;0.35;;;4.20;99.90;;;;;;5093931;28;20024;-79
2021/11/21 04:34:31;;;;;;;0.20;0.20;;;4.20;99.90;;;;;;5093899;28;20097;-79
2021/11/21 04:36:59;;;;;;;0.65;0.43;;;4.10;99.90;;;;;;5095511;28;20095;-79
2021/11/21 04:39:25;;;;;;;0.63;0.63;;;4.10;99.90;;;;;;5094997;28;20054;-79
2021/11/21 04:41:52;;;;;;;0.28;0.28;;;4.10;99.90;;;;;;5094412;28;20023;-79
2021/11/21 04:44:17;;;;;;;0.28;0.28;;;4.10;99.90;;;;;;5095165;28;20031;-79
2021/11/21 04:46:43;;;;;;;0.47;0.47;;;4.10;99.90;;;;;;5094687;28;20028;-79
2021/11/21 04:49:09;;;;;;;0.10;0.08;;;4.10;99.90;;;;;;5094733;28;20028;-79
2021/11/21 04:51:34;;;;;;;0.75;0.65;;;4.10;99.90;;;;;;5094719;28;20020;-79
2021/11/21 04:54:02;;;;;;;0.75;0.68;;;4.10;99.90;;;;;;5094789;28;20020;-79
2021/11/21 04:56:27;;;;;;;0.38;0.38;;;4.10;99.90;;;;;;5075269;28;20024;-79
2021/11/21 04:58:53;;;;;;;0.35;0.35;;;4.10;99.90;;;;;;5094402;28;20444;-79
2021/11/21 05:01:19;;;;;;;0.10;0.10;;;4.10;99.90;;;;;;5094258;28;20049;-79
2021/11/21 05:03:44;;;;;;;0.20;0.20;;;4.10;99.90;;;;;;5094516;28;20487;-79
2021/11/21 05:06:10;;;;;;;0.00;0.00;;;4.20;99.90;;;;;;5094639;28;20032;-79
2021/11/21 05:08:36;;;;;;;0.60;0.60;;;4.30;99.90;;;;;;5076155;28;20051;-79
2021/11/21 05:11:01;;;;;;;0.00;0.00;;;4.20;99.90;;;;;;5093921;28;20102;-79
2021/11/21 05:13:27;;;;;;;0.08;0.08;;;4.20;99.90;;;;;;5094411;28;20090;-79
2021/11/21 05:15:52;;;;;;;0.55;0.28;;;4.20;99.90;;;;;;5076215;28;20444;-79
2021/11/21 05:18:19;;;;;;;0.03;0.03;;;4.20;99.90;;;;;;5093913;28;20029;-79
2021/11/21 05:20:45;;;;;;;0.20;0.20;;;4.20;99.90;;;;;;5094039;28;20019;-79
2021/11/21 05:23:10;;;;;;;0.00;0.00;;;4.20;99.90;;;;;;5094055;28;20033;-79
2021/11/21 05:25:36;;;;;;;0.00;0.00;;;4.20;99.90;;;;;;5094256;28;20051;-79
2021/11/21 05:28:02;;;;;;;1.77;1.27;;;4.20;99.90;;;;;;5093759;28;20075;-79
2021/11/21 05:30:27;;;;;;;0.32;0.32;;;4.20;99.90;;;;;;5094051;28;20016;-79
2021/11/21 05:32:53;;;;;;;3.10;1.65;;;4.30;99.90;;;;;;5075476;28;20028;-79
2021/11/21 05:35:20;;;;;;;0.00;0.00;;;4.30;99.90;;;;;;5093694;28;20016;-79
2021/11/21 05:37:47;;;;;;;0.32;0.32;;;4.20;99.90;;;;;;5094082;28;20031;-79
2021/11/21 05:40:14;;;;;;;0.30;0.30;;;4.20;99.90;;;;;;5094057;28;20028;-79
2021/11/21 05:42:40;;;;;;;0.32;0.32;;;4.20;99.90;;;;;;5093732;28;20024;-79
2021/11/21 05:45:06;;;;;;;0.35;0.28;;;4.20;99.90;;;;;;5094284;28;20221;-79
2021/11/21 05:47:35;;;;;;;0.15;0.15;;;4.20;99.90;;;;;;5093847;28;20024;-79
2021/11/21 05:50:02;;;;;;;0.20;0.20;;;4.30;99.90;;;;;;5093707;28;20027;-79
2021/11/21 05:52:28;;;;;;;0.00;0.00;;;4.30;99.90;;;;;;5075399;28;20030;-79
2021/11/21 05:54:55;;;;;;;0.15;0.15;;;4.30;99.90;;;;;;5093285;28;20024;-79
2021/11/21 05:57:20;;;;;;;0.10;0.10;;;4.30;99.90;;;;;;5091427;28;20028;-79
2021/11/21 05:59:47;;;;;;;1.27;1.17;;;4.40;99.90;;;;;;5092733;28;20024;-79
2021/11/21 06:02:13;;;;;;;1.33;0.45;;;4.40;99.90;;;;;;5093105;28;20524;-79
2021/11/21 06:04:39;;;;;;;0.30;0.30;;;4.40;99.90;;;;;;5093200;28;20099;-79
2021/11/21 06:07:04;;;;;;;0.00;0.00;;;4.40;99.90;;;;;;5093350;28;20394;-79
2021/11/21 06:09:30;;;;;;;0.10;0.10;;;4.40;99.90;;;;;;5093453;28;20116;-79
2021/11/21 06:11:56;;;;;;;1.13;0.68;;;4.40;99.90;;;;;;5093650;28;20024;-79
2021/11/21 06:14:22;;;;;;;2.63;0.90;;;4.40;99.90;;;;;;5093226;28;20031;-79
2021/11/21 06:16:48;;;;;;;0.82;0.65;;;4.40;99.90;;;;;;5092925;28;20024;-79
2021/11/21 06:19:13;;;;;;;0.00;0.00;;;4.50;99.90;;;;;;5092649;28;20059;-79
2021/11/21 06:21:39;;;;;;;0.35;0.35;;;4.50;99.90;;;;;;5093206;28;20498;-79
2021/11/21 06:24:07;;;;;;;0.35;0.35;;;4.50;99.90;;;;;;5093210;28;20063;-79
2021/11/21 06:26:33;;;;;;;0.73;0.45;;;4.50;99.90;;;;;;5093072;28;20027;-79
2021/11/21 06:28:58;;;;;;;18.63;1.17;;;4.50;99.90;;;;;;5093125;28;20479;-79
2021/11/21 06:31:24;;;;;;;0.38;0.38;;;4.50;99.90;;;;;;5092860;28;20021;-79
2021/11/21 06:33:50;;;;;;;0.15;0.15;;;4.60;99.90;;;;;;5092898;28;20039;-79
2021/11/21 06:36:16;;;;;;;3.58;2.10;;;4.60;99.90;;;;;;5093061;28;20032;-79
2021/11/21 06:38:43;;;;;;;0.00;0.00;;;4.50;99.90;;;;;;5092843;28;20028;-79
2021/11/21 06:41:09;;;;;;;0.08;0.08;;;4.50;99.90;;;;;;5092943;28;20501;-79
2021/11/21 06:43:35;;;;;;;0.30;0.30;;;4.50;99.90;;;;;;5092844;28;20032;-79
2021/11/21 06:46:01;;;;;;;0.10;0.10;;;4.50;99.90;;;;;;5074732;28;20042;-79
2021/11/21 06:48:26;;;;;;;0.63;0.63;;;4.60;99.90;;;;;;5092582;28;20486;-79
2021/11/21 06:50:53;;;;;;;0.57;0.57;;;4.60;99.90;;;;;;5092694;28;20402;-79
2021/11/21 06:53:21;;;;;;;0.20;0.20;;;4.60;99.90;;;;;;5092351;28;20020;-79
2021/11/21 06:55:47;;;;;;;18.45;2.13;;;4.70;99.90;;;;;;5096576;28;20016;-79
2021/11/21 06:58:13;;;;;;;0.52;0.52;;;4.60;99.90;;;;;;5080290;28;20028;-79
2021/11/21 07:00:39;;;;;;;0.52;0.52;;;4.60;99.90;;;;;;5099270;28;20077;-79
2021/11/21 07:03:05;;;;;;;0.20;0.20;;;4.60;99.90;;;;;;5099312;28;20106;-79
2021/11/21 07:05:30;;;;;;;0.55;0.43;;;4.70;99.90;;;;;;5081140;28;20063;-79
2021/11/21 07:07:57;;;;;;;0.00;0.00;;;4.70;99.90;;;;;;5099505;28;20071;-79
2021/11/21 07:10:23;;;;;;;0.00;0.00;;;4.70;99.90;;;;;;5099327;28;20021;-79
2021/11/21 07:12:49;;;;;;;1.65;1.00;;;4.60;99.90;;;;;;5098298;28;20031;-79
2021/11/21 07:15:16;;;;;;;0.10;0.10;;;4.60;99.90;;;;;;5099153;28;20020;-79
2021/11/21 07:17:43;;;;;;;0.17;0.17;;;4.60;99.90;;;;;;5099087;28;20092;-79
2021/11/21 07:20:15;;;;;;;0.00;0.00;;;4.60;99.90;;;;;;5099234;28;20158;-79
2021/11/21 07:22:46;;;;;;;1.63;1.52;;;4.60;99.90;;;;;;5099427;28;20024;-79
2021/11/21 07:25:12;;;;;;;13.00;1.20;;;4.70;99.90;;;;;;5099066;28;20018;-79
2021/11/21 07:27:40;;;;;;;0.75;0.75;;;4.70;99.90;;;;;;5099263;28;20047;-79
2021/11/21 07:30:06;;;;;;;0.00;0.00;;;4.70;99.90;;;;;;5099487;28;20471;-79
2021/11/21 07:32:31;;;;;;;0.00;0.00;;;4.70;99.90;;;;;;5098919;28;20024;-79
2021/11/21 07:34:57;;;;;;;0.10;0.10;;;4.80;99.90;;;;;;5080786;28;20024;-79
2021/11/21 07:37:22;;;;;;;0.20;0.20;;;4.80;99.90;;;;;;5080977;28;20031;-79
2021/11/21 07:39:48;;;;;;;0.57;0.57;;;4.90;99.90;;;;;;5099112;28;20031;-79
2021/11/21 07:42:14;;;;;;;0.22;0.22;;;4.90;99.90;;;;;;5099023;28;20496;-79
2021/11/21 07:44:39;;;;;;;0.30;0.30;;;4.90;99.90;;;;;;5097779;28;20165;-79
2021/11/21 07:47:08;;;;;;;0.55;0.55;;;5.00;99.90;;;;;;5098657;28;20462;-79
2021/11/21 07:49:34;;;;;;;0.00;0.00;;;5.00;99.90;;;;;;5097711;28;20028;-79
2021/11/21 07:52:00;;;;;;;0.00;0.00;;;5.00;99.90;;;;;;5099071;28;20092;-79
2021/11/21 07:54:25;;;;;;;0.22;0.22;;;5.00;99.90;;;;;;5098799;28;20024;-79
2021/11/21 07:56:51;;;;;;;2.05;1.20;;;5.00;99.90;;;;;;5097538;28;20097;-79
2021/11/21 07:59:16;;;;;;;0.95;0.95;;;5.00;99.90;;;;;;5098404;28;20031;-78
2021/11/21 08:01:42;;;;;;;0.65;0.45;;;5.10;99.90;;;;;;5098494;28;20437;-79
2021/11/21 08:04:10;;;;;;;1.00;0.90;;;5.10;99.90;;;;;;5080512;28;20032;-79
2021/11/21 08:06:36;;;;;;;0.00;0.00;;;5.20;99.90;;;;;;5098046;28;20099;-79
2021/11/21 08:09:02;;;;;;;0.28;0.28;;;5.10;99.90;;;;;;5095569;28;20158;-79
2021/11/21 08:11:27;;;;;;;0.38;0.35;;;5.20;99.90;;;;;;5095259;28;20105;-79
2021/11/21 08:13:53;;;;;;;1.80;0.90;;;5.20;99.90;;;;;;5095590;28;20099;-79
2021/11/21 08:16:19;;;;;;;0.32;0.32;;;5.30;99.90;;;;;;5095002;28;20016;-79
2021/11/21 08:18:44;;;;;;;0.20;0.20;;;5.30;99.90;;;;;;5095196;28;20069;-79
2021/11/21 08:21:10;;;;;;;0.63;0.63;;;5.30;99.90;;;;;;5095221;28;20078;-79
2021/11/21 08:23:36;;;;;;;0.55;0.55;;;5.40;99.90;;;;;;5095148;28;20390;-79
2021/11/21 08:26:02;;;;;;;0.13;0.13;;;5.40;99.90;;;;;;5095548;28;20031;-79
2021/11/21 08:28:28;;;;;;;0.10;0.10;;;5.50;99.90;;;;;;5095083;28;20143;-79
2021/11/21 08:30:53;;;;;;;0.25;0.25;;;5.50;99.90;;;;;;5076669;28;20110;-79
2021/11/21 08:33:19;;;;;;;0.20;0.20;;;5.60;99.90;;;;;;5095139;28;20066;-79
2021/11/21 08:35:45;;;;;;;1.92;0.47;;;5.60;99.90;;;;;;5095128;28;20020;-79
2021/11/21 08:38:10;;;;;;;1.40;1.33;;;5.60;99.90;;;;;;5094782;28;20024;-79
2021/11/21 08:40:36;;;;;;;2.08;0.80;;;5.60;99.90;;;;;;5095312;28;20078;-79
2021/11/21 08:43:03;;;;;;;1.23;1.13;;;5.70;99.90;;;;;;5094644;28;20554;-79
2021/11/21 08:45:31;;;;;;;1.02;1.02;;;5.70;99.90;;;;;;5076697;28;20414;-79
2021/11/21 08:47:57;;;;;;;0.20;0.20;;;5.80;99.90;;;;;;5094886;28;20028;-79
2021/11/21 08:50:22;;;;;;;0.20;0.20;;;5.80;99.90;;;;;;5094755;28;20502;-79
2021/11/21 08:52:48;;;;;;;2.00;0.85;;;5.80;99.90;;;;;;5094510;28;20414;-79
2021/11/21 08:55:15;;;;;;;0.93;0.90;;;5.90;99.90;;;;;;5094891;28;20032;-79
2021/11/21 08:57:41;;;;;;;0.40;0.40;;;5.90;99.90;;;;;;5093250;28;20032;-79
2021/11/21 09:00:09;;;;;;;0.00;0.00;;;6.00;99.90;;;;;;5094519;28;20021;-79
2021/11/21 09:02:36;;;;;;;3.00;1.67;;;6.00;99.90;;;;;;5094646;28;20390;-79
2021/11/21 09:05:07;;;;;;;0.20;0.20;;;6.10;99.90;;;;;;5094402;28;20034;-79
2021/11/21 09:07:34;;;;;;;0.20;0.20;;;6.20;99.90;;;;;;5094299;28;20463;-79
2021/11/21 09:10:00;;;;;;;0.50;0.50;;;6.30;99.90;;;;;;5094111;28;20016;-79
2021/11/21 09:12:26;;;;;;;0.75;0.60;;;6.20;99.90;;;;;;5094060;28;20058;-79
2021/11/21 09:14:53;;;;;;;0.30;0.30;;;6.20;99.90;;;;;;5094386;28;20028;-79
2021/11/21 09:17:19;;;;;;;0.73;0.63;;;6.20;99.90;;;;;;5093350;28;20028;-78
2021/11/21 09:19:45;;;;;;;0.90;0.90;;;6.40;99.90;;;;;;5093401;28;20446;-79
2021/11/21 09:22:10;;;;;;;0.60;0.60;;;6.40;99.90;;;;;;5094962;28;20051;-79
2021/11/21 09:24:36;;;;;;;6.10;1.48;;;6.40;99.90;;;;;;5094116;28;20070;-79
2021/11/21 09:27:02;;;;;;;0.70;0.52;;;6.40;99.90;;;;;;5093846;28;20090;-79
2021/11/21 09:29:28;;;;;;;0.50;0.50;;;6.40;99.90;;;;;;5093920;28;20028;-79
2021/11/21 09:31:54;;;;;;;0.65;0.65;;;6.40;99.90;;;;;;5093953;28;20020;-79
2021/11/21 09:34:19;;;;;;;1.85;1.15;;;6.50;99.90;;;;;;5093635;28;20020;-79
2021/11/21 09:36:45;;;;;;;1.50;1.40;;;6.60;99.90;;;;;;5094081;28;20036;-79
2021/11/21 09:39:12;;;;;;;0.30;0.30;;;6.70;99.90;;;;;;5093728;28;20486;-79
2021/11/21 09:41:39;;;;;;;0.13;0.13;;;6.70;99.90;;;;;;5094091;28;20031;-79
2021/11/21 09:44:06;;;;;;;0.60;0.60;;;6.80;99.90;;;;;;5093724;28;20478;-79
2021/11/21 09:46:32;;;;;;;2.45;1.50;;;6.90;99.90;;;;;;5093768;28;20519;-79
2021/11/21 09:48:58;;;;;;;0.52;0.47;;;7.00;99.90;;;;;;5093777;28;20020;-79
2021/11/21 09:51:24;;;;;;;1.23;0.82;;;7.30;99.90;;;;;;5093404;28;20483;-79
2021/11/21 09:53:50;;;;;;;2.08;1.90;;;7.30;99.90;;;;;;5093347;28;20031;-79
2021/11/21 09:56:16;;;;;;;0.50;0.50;;;7.50;99.90;;;;;;5093607;28;20024;-79
2021/11/21 09:58:43;;;;;;;0.82;0.82;;;7.50;99.90;;;;;;5091823;28;20032;-79
2021/11/21 10:01:42;;;;;;;0.70;0.70;;;7.60;99.90;;;;;;5075109;28;20035;-79
2021/11/21 10:04:11;;;;;;;2.25;2.05;;;7.60;99.90;;;;;;5093146;28;20058;-79
2021/11/21 10:06:45;;;;;;;0.38;0.38;;;7.80;99.90;;;;;;5093156;28;20047;-79
2021/11/21 10:09:13;;;;;;;0.60;0.60;;;8.10;99.90;;;;;;5093761;28;20027;-79
2021/11/21 10:12:01;;;;;;;0.93;0.85;;;8.50;99.90;;;;;;5091243;28;20047;-79
2021/11/21 10:14:28;;;;;;;0.10;0.10;;;8.80;99.90;;;;;;5093394;28;20028;-79
2021/11/21 10:16:53;;;;;;;0.45;0.45;;;8.80;99.90;;;;;;5075129;28;20502;-79
2021/11/21 10:19:19;;;;;;;2.22;0.80;;;9.00;99.90;;;;;;5092805;28;20028;-79
2021/11/21 10:21:55;;;;;;;0.40;0.40;;;9.10;99.90;;;;;;5093496;28;20021;-79
2021/11/21 10:24:26;;;;;;;0.93;0.90;;;9.20;99.90;;;;;;5074554;28;20039;-79
2021/11/21 10:27:06;;;;;;;0.98;0.52;;;9.50;99.90;;;;;;5092664;28;20043;-79
2021/11/21 10:29:37;;;;;;;0.28;0.22;;;10.00;99.90;;;;;;5092673;28;20031;-79
2021/11/21 10:32:15;;;;;;;0.95;0.17;;;9.90;99.90;;;;;;5092517;28;20552;-79
2021/11/21 10:34:51;;;;;;;2.72;1.83;;;9.90;99.90;;;;;;5092853;28;20027;-79
2021/11/21 10:37:18;;;;;;;2.92;1.13;;;9.90;99.90;;;;;;5092415;28;20499;-79
2021/11/21 10:39:46;;;;;;;0.30;0.30;;;9.60;99.90;;;;;;5092263;28;20505;-79
2021/11/21 10:42:12;;;;;;;1.15;1.05;;;9.30;99.90;;;;;;5092550;28;20020;-79
2021/11/21 10:44:49;;;;;;;0.55;0.55;;;9.10;99.90;;;;;;5092269;28;20089;-79
2021/11/21 10:47:14;;;;;;;4.85;1.95;;;8.90;99.90;;;;;;5092267;28;20020;-79
2021/11/21 10:49:40;;;;;;;0.98;0.82;;;8.70;99.90;;;;;;5074235;28;20031;-79
2021/11/21 10:52:17;;;;;;;3.28;1.15;;;8.50;99.90;;;;;;5091946;28;20093;-79
2021/11/21 10:54:55;;;;;;;1.65;1.23;;;8.40;99.90;;;;;;5091961;28;20024;-79
2021/11/21 10:57:34;;;;;;;6.22;2.05;;;8.40;99.90;;;;;;5087325;28;20043;-79
2021/11/21 11:00:06;;;;;;;1.38;1.27;;;8.20;99.90;;;;;;5070656;28;20028;-79
2021/11/21 11:02:42;;;;;;;1.75;1.17;;;8.20;99.90;;;;;;5070600;28;20021;-78
2021/11/21 11:05:12;;;;;;;0.22;0.22;;;8.20;99.90;;;;;;5071611;28;20028;-79
2021/11/21 11:07:53;;;;;;;0.73;0.73;;;8.40;99.90;;;;;;5071848;28;20472;-79
2021/11/21 11:10:26;;;;;;;0.70;0.30;;;8.40;99.90;;;;;;5070773;28;20099;-79
2021/11/21 11:13:03;;;;;;;0.30;0.30;;;8.40;99.90;;;;;;5071807;28;20568;-79
2021/11/21 11:15:30;;;;;;;1.05;0.82;;;8.30;99.90;;;;;;5072116;28;20021;-79
2021/11/21 11:17:56;;;;;;;0.52;0.50;;;8.30;99.90;;;;;;5071685;28;20024;-79
2021/11/21 11:20:24;;;;;;;2.17;1.13;;;8.50;99.90;;;;;;5071587;28;20032;-79
2021/11/21 11:22:50;;;;;;;1.45;0.80;;;8.70;99.90;;;;;;5072283;28;20016;-79
2021/11/21 11:25:32;;;;;;;2.03;0.63;;;8.90;99.90;;;;;;5072084;28;20473;-79
2021/11/21 11:28:07;;;;;;;1.08;0.20;;;8.80;99.90;;;;;;5071901;28;20124;-79
2021/11/21 11:30:35;;;;;;;0.30;0.30;;;8.70;99.90;;;;;;5072776;28;20052;-79
2021/11/21 11:33:22;;;;;;;1.02;0.98;;;8.60;99.90;;;;;;5072246;28;20028;-79
2021/11/21 11:35:49;;;;;;;0.10;0.10;;;8.60;99.90;;;;;;5092458;28;20020;-79
2021/11/21 11:38:23;;;;;;;0.13;0.13;;;8.70;99.90;;;;;;5092407;28;20024;-79
2021/11/21 11:40:56;;;;;;;;;;;9.10;99.90;;;;;;5091763;28;20024;-79
2021/11/21 11:43:27;;;;;;;0.00;0.00;;;9.40;99.90;;;;;;5096610;28;19908;-79
2021/11/21 11:46:07;;;;;;;1.13;1.02;;;9.60;99.90;;;;;;5096690;28;20031;-79
2021/11/21 11:48:46;;;;;;;0.45;0.45;;;9.90;99.90;;;;;;5095857;28;20479;-79
2021/11/21 11:51:19;;;;;;;0.03;0.03;;;10.10;99.90;;;;;;5096229;28;20031;-79
2021/11/21 11:53:47;;;;;;;2.20;0.40;;;9.70;99.90;;;;;;5095352;28;20016;-79
2021/11/21 11:56:24;;;;;;;1.50;0.90;;;9.50;99.90;;;;;;5077554;28;20074;-79
2021/11/21 11:58:58;;;;;;;0.10;0.10;;;9.30;99.90;;;;;;5095470;28;20071;-79
2021/11/21 12:01:39;;;;;;;0.20;0.20;;;9.30;99.90;;;;;;5094205;28;20395;-79
2021/11/21 12:04:08;;;;;;;1.17;0.80;;;9.30;99.90;;;;;;5077246;28;20032;-79
2021/11/21 12:06:48;;;;;;;0.20;0.20;;;9.30;99.90;;;;;;5095465;28;20479;-79
2021/11/21 12:09:19;;;;;;;0.40;0.30;;;9.50;99.90;;;;;;5095729;28;20035;-79
2021/11/21 12:11:52;;;;;;;0.20;0.20;;;9.40;99.90;;;;;;5095803;28;20031;-79
2021/11/21 12:14:37;;;;;;;;;;;9.50;99.90;;;;;;5095774;28;20099;-79
2021/11/21 12:17:17;;;;;;;0.82;0.45;;;9.40;99.90;;;;;;5095356;28;19908;-79
2021/11/21 12:19:57;;;;;;;1.38;1.10;;;9.20;99.90;;;;;;5095957;28;20070;-79
2021/11/21 12:22:29;;;;;;;0.57;0.50;;;9.20;99.90;;;;;;5095188;28;20073;-79
2021/11/21 12:25:08;;;;;;;2.83;0.55;;;9.40;99.90;;;;;;5095528;28;20024;-79
2021/11/21 12:27:41;;;;;;;0.38;0.38;;;9.30;99.90;;;;;;5095115;28;20040;-79
2021/11/21 12:30:07;;;;;;;0.35;0.35;;;9.20;99.90;;;;;;5095353;28;20130;-79
2021/11/21 12:32:34;;;;;;;2.30;0.90;;;9.00;99.90;;;;;;5095239;28;20020;-79
2021/11/21 12:35:19;;;;;;;0.10;0.10;;;9.10;99.90;;;;;;5095229;28;20008;-79
2021/11/21 12:37:46;;;;;;;2.72;0.57;;;9.40;99.90;;;;;;5095113;28;20060;-79
2021/11/21 12:40:17;;;;;;;0.22;0.22;;;9.30;99.90;;;;;;5095357;28;20046;-79
2021/11/21 12:42:45;;;;;;;0.73;0.65;;;9.40;99.90;;;;;;5095100;28;20028;-79
2021/11/21 12:45:13;;;;;;;0.88;0.35;;;9.50;99.90;;;;;;5094987;28;20024;-79
2021/11/21 12:47:41;;;;;;;0.00;0.00;;;9.50;99.90;;;;;;5094968;28;20395;-79
2021/11/21 12:50:17;;;;;;;0.25;0.25;;;9.50;99.90;;;;;;5076504;28;20422;-79
2021/11/21 12:53:11;;;;;;;0.55;0.45;;;9.50;99.90;;;;;;5094149;28;20020;-79
2021/11/21 12:55:43;;;;;;;0.10;0.10;;;9.50;99.90;;;;;;5092092;28;20036;-79
2021/11/21 12:58:20;;;;;;;0.80;0.57;;;9.50;99.90;;;;;;5094541;28;20035;-79
2021/11/21 13:00:48;;;;;;;0.20;0.20;;;9.60;99.90;;;;;;5093225;28;20566;-79